Time;durP1;ratioP1;P1;durP2;ratioP2;P2;SDS_P1;SDS_P2;PMS_P1;PMS_P2;Temp;Humidity;BMP_temperature;BMP_pressure;BME280_temperature;BME280_humidity;BME280_pressure;Samples;Min_cycle;Max_cycle;Signal;HPM_P1;HPM_P2
2022/06/13 00:01:01;;;;;;;1.83;1.33;;;17.10;70.90;17.10;100604.00;;;;4954489;28;92000;-66
2022/06/13 00:03:27;;;;;;;1.50;1.23;;;17.10;71.50;17.00;100599.00;;;;4943235;28;95994;-66
2022/06/13 00:05:52;;;;;;;3.47;1.08;;;17.00;72.10;17.00;100598.00;;;;4933244;28;124185;-66
2022/06/13 00:08:18;;;;;;;1.92;1.30;;;16.90;72.70;16.90;100599.00;;;;4931717;28;123572;-66
2022/06/13 00:10:44;;;;;;;3.85;1.52;;;16.80;73.30;16.80;100587.00;;;;4935180;28;93181;-66
2022/06/13 00:13:09;;;;;;;1.55;1.10;;;16.70;73.90;16.70;100591.00;;;;4932804;28;109838;-66
2022/06/13 00:15:36;;;;;;;5.72;1.63;;;16.70;74.50;16.70;100589.00;;;;4933913;28;120525;-65
2022/06/13 00:18:01;;;;;;;1.13;0.88;;;16.60;74.80;16.60;100580.00;;;;4933189;28;93871;-65
2022/06/13 00:20:27;;;;;;;1.15;1.08;;;16.50;75.30;16.50;100583.00;;;;4934283;28;100091;-65
2022/06/13 00:22:53;;;;;;;1.38;1.27;;;16.50;75.70;16.50;100588.00;;;;4933637;28;94590;-65
2022/06/13 00:25:18;;;;;;;1.45;1.38;;;16.40;76.20;16.40;100575.00;;;;4933626;28;116914;-65
2022/06/13 00:27:56;;;;;;;1.67;1.35;;;16.30;76.70;16.30;100588.00;;;;4916920;28;116910;-66
2022/06/13 00:30:22;;;;;;;1.63;1.30;;;16.30;77.40;16.20;100590.00;;;;4926782;28;92800;-65
2022/06/13 00:32:48;;;;;;;1.13;1.10;;;16.20;77.80;16.10;100594.00;;;;4945905;28;93676;-65
2022/06/13 00:35:14;;;;;;;1.60;1.15;;;16.10;78.40;16.10;100597.00;;;;4952889;28;93739;-65
2022/06/13 00:37:39;;;;;;;3.72;1.52;;;16.00;79.00;16.00;100582.00;;;;4952210;28;121721;-65
2022/06/13 00:40:06;;;;;;;1.42;1.33;;;16.00;79.60;15.90;100579.00;;;;4954669;28;110331;-65
2022/06/13 00:42:32;;;;;;;2.15;1.23;;;15.90;80.20;15.90;100571.00;;;;4954150;28;100794;-65
2022/06/13 00:45:24;;;;;;;2.23;1.53;;;15.80;80.70;15.80;100568.00;;;;4953147;28;123646;-65
2022/06/13 00:47:53;;;;;;;1.48;1.38;;;15.80;81.50;15.80;100581.00;;;;4953206;28;113141;-65
2022/06/13 00:50:36;;;;;;;1.90;1.35;;;15.70;82.20;15.70;100566.00;;;;4957340;28;92026;-65
2022/06/13 00:53:10;;;;;;;2.50;2.00;;;15.70;83.10;15.60;100568.00;;;;4968802;28;93244;-66
2022/06/13 00:55:56;;;;;;;1.73;1.30;;;15.60;83.90;15.50;100569.00;;;;4934873;28;116331;-65
2022/06/13 00:58:25;;;;;;;1.85;1.33;;;15.50;84.30;15.50;100559.00;;;;4935567;28;94070;-66
2022/06/13 01:00:55;;;;;;;2.45;1.73;;;15.50;84.90;15.40;100567.00;;;;4953757;28;92743;-66
2022/06/13 01:03:27;;;;;;;3.67;1.70;;;15.40;85.40;15.40;100557.00;;;;4960527;28;94183;-65
2022/06/13 01:05:57;;;;;;;2.67;1.83;;;15.40;86.00;15.30;100566.00;;;;4952409;28;93530;-66
2022/06/13 01:08:25;;;;;;;1.52;1.10;;;15.30;86.60;15.20;100555.00;;;;4935905;28;93215;-66
2022/06/13 01:11:16;;;;;;;2.90;1.45;;;15.20;87.20;15.20;100555.00;;;;4952605;28;104465;-66
2022/06/13 01:14:12;;;;;;;2.30;1.67;;;15.20;87.90;15.10;100555.00;;;;4952896;28;92953;-66
2022/06/13 01:17:09;;;;;;;1.55;1.42;;;15.10;88.40;15.00;100551.00;;;;4968243;28;92555;-65
2022/06/13 01:20:06;;;;;;;3.95;1.60;;;15.10;89.00;15.00;100561.00;;;;4954055;28;92818;-66
2022/06/13 01:23:21;;;;;;;5.35;1.88;;;15.00;89.80;14.90;100560.00;;;;4966961;28;102120;-66
2022/06/13 01:26:27;;;;;;;1.77;1.30;;;15.00;90.20;14.80;100551.00;;;;4952852;28;93436;-66
2022/06/13 01:29:28;;;;;;;1.80;1.70;;;14.80;90.30;14.70;100552.00;;;;4941424;28;93138;-65
2022/06/13 01:32:32;;;;;;;1.40;1.30;;;14.80;90.70;14.70;100548.00;;;;4967255;28;94916;-66
2022/06/13 01:35:22;;;;;;;1.97;1.77;;;14.70;90.90;14.60;100534.00;;;;4920350;28;92777;-66
2022/06/13 01:38:26;;;;;;;1.27;1.17;;;14.60;91.30;14.50;100547.00;;;;4939934;28;97101;-66
2022/06/13 01:41:18;;;;;;;1.97;1.40;;;14.50;91.40;14.50;100547.00;;;;4957778;28;92823;-66
2022/06/13 01:44:16;;;;;;;2.27;2.07;;;14.50;91.70;14.50;100542.00;;;;4970706;28;115873;-66
2022/06/13 01:47:26;;;;;;;1.73;1.60;;;14.50;91.90;14.50;100547.00;;;;4972579;28;91960;-66
2022/06/13 01:49:54;;;;;;;2.20;2.00;;;14.40;92.10;14.50;100539.00;;;;4958802;28;92891;-66
2022/06/13 01:52:58;;;;;;;1.23;1.13;;;14.40;92.40;14.50;100532.00;;;;4961401;28;122874;-66
2022/06/13 01:55:48;;;;;;;2.40;1.00;;;14.40;92.60;14.50;100525.00;;;;4955911;28;93882;-65
2022/06/13 01:58:13;;;;;;;1.73;1.63;;;14.40;92.80;14.50;100531.00;;;;4971542;28;102837;-66
2022/06/13 02:00:47;;;;;;;2.63;1.83;;;14.40;92.90;14.50;100525.00;;;;4957221;28;93011;-66
2022/06/13 02:03:27;;;;;;;1.50;1.40;;;14.50;93.20;14.50;100524.00;;;;4955357;28;93814;-66
2022/06/13 02:06:01;;;;;;;2.70;1.87;;;14.50;93.40;14.50;100536.00;;;;4941526;28;93550;-66
2022/06/13 02:08:34;;;;;;;1.00;1.00;;;14.50;93.60;14.60;100542.00;;;;4959112;28;92918;-66
2022/06/13 02:11:31;;;;;;;1.93;1.73;;;14.50;93.80;14.50;100538.00;;;;4971660;28;93081;-66
2022/06/13 02:14:29;;;;;;;4.47;2.00;;;14.50;93.90;14.50;100550.00;;;;4958237;28;93271;-66
2022/06/13 02:17:17;;;;;;;2.63;2.00;;;14.50;94.10;14.50;100547.00;;;;4956525;28;92839;-66
2022/06/13 02:19:45;;;;;;;1.83;1.73;;;14.50;94.20;14.50;100535.00;;;;4955059;28;102446;-66
2022/06/13 02:22:21;;;;;;;2.73;1.40;;;14.40;94.60;14.40;100537.00;;;;4958915;28;93883;-66
2022/06/13 02:25:10;;;;;;;2.87;1.60;;;14.40;94.70;14.40;100536.00;;;;4969746;28;117671;-66
2022/06/13 02:27:38;;;;;;;1.20;1.10;;;14.40;95.00;14.40;100540.00;;;;4942745;28;94738;-66
2022/06/13 02:30:17;;;;;;;1.67;1.50;;;14.40;95.10;14.50;100537.00;;;;4955992;28;92935;-66
2022/06/13 02:33:03;;;;;;;2.47;1.83;;;14.40;95.30;14.50;100542.00;;;;4971936;28;101391;-66
2022/06/13 02:36:05;;;;;;;6.00;1.60;;;14.40;95.40;14.60;100544.00;;;;4971534;28;93205;-66
2022/06/13 02:38:42;;;;;;;1.40;1.30;;;14.50;95.30;14.60;100553.00;;;;4938486;28;115066;-67
2022/06/13 02:41:16;;;;;;;2.33;1.97;;;14.60;95.40;14.70;100556.00;;;;4958989;28;92320;-68
2022/06/13 02:43:55;;;;;;;2.07;1.33;;;14.60;95.40;14.80;100572.00;;;;4937951;28;101025;-68
2022/06/13 02:46:30;;;;;;;1.17;1.07;;;14.70;95.20;14.90;100575.00;;;;4960310;28;92821;-66
2022/06/13 02:49:08;;;;;;;4.27;1.30;;;14.80;95.10;15.00;100575.00;;;;4972933;28;94930;-67
2022/06/13 02:52:09;;;;;;;1.57;1.17;;;14.90;94.90;15.10;100566.00;;;;4939239;28;93242;-67
2022/06/13 02:54:51;;;;;;;1.38;1.27;;;15.00;94.60;15.20;100568.00;;;;4952290;28;92883;-68
2022/06/13 02:57:36;;;;;;;1.33;1.20;;;15.10;94.40;15.30;100572.00;;;;4956197;28;94669;-66
2022/06/13 03:00:20;;;;;;;1.10;0.95;;;15.20;94.20;15.40;100568.00;;;;4960369;28;92786;-66
2022/06/13 03:03:09;;;;;;;0.98;0.82;;;15.30;93.90;15.50;100570.00;;;;4959941;28;93249;-66
2022/06/13 03:06:03;;;;;;;2.30;1.08;;;15.40;93.70;15.60;100571.00;;;;4937102;28;98085;-67
2022/06/13 03:08:43;;;;;;;2.38;1.55;;;15.40;93.40;15.60;100565.00;;;;4976158;28;92444;-66
2022/06/13 03:11:39;;;;;;;2.55;1.23;;;15.50;93.40;15.70;100555.00;;;;4941489;28;110639;-67
2022/06/13 03:14:37;;;;;;;1.43;0.93;;;15.60;93.20;15.70;100565.00;;;;4973323;28;92789;-66
2022/06/13 03:17:20;;;;;;;2.28;0.85;;;15.60;93.00;15.80;100564.00;;;;4970136;28;92978;-66
2022/06/13 03:19:56;;;;;;;1.85;0.98;;;15.70;93.00;15.90;100577.00;;;;4972769;28;94124;-67
2022/06/13 03:22:48;;;;;;;2.70;1.05;;;15.70;92.90;15.90;100577.00;;;;4946074;28;93386;-66
2022/06/13 03:25:33;;;;;;;1.88;1.42;;;15.80;92.80;16.00;100600.00;;;;4962922;28;92894;-66
2022/06/13 03:28:15;;;;;;;2.35;0.85;;;15.90;92.70;16.10;100615.00;;;;4945032;28;101334;-67
2022/06/13 03:30:47;;;;;;;1.08;0.98;;;15.90;92.60;16.20;100602.00;;;;4974584;28;93114;-67
2022/06/13 03:36:16;;;;;;;3.05;1.00;;;16.10;92.40;16.30;100609.00;;;;4970396;28;92058;-67
2022/06/13 03:39:13;;;;;;;1.40;0.90;;;16.10;92.30;16.40;100608.00;;;;4938680;28;92867;-66
2022/06/13 03:41:46;;;;;;;0.68;0.63;;;16.20;92.20;16.40;100603.00;;;;4910816;28;95721;-67
2022/06/13 03:44:20;;;;;;;1.88;0.82;;;16.30;92.10;16.50;100605.00;;;;4953070;28;93994;-67
2022/06/13 03:46:59;;;;;;;1.77;0.88;;;16.30;92.00;16.60;100608.00;;;;4973220;28;93012;-67
2022/06/13 03:49:39;;;;;;;2.88;1.08;;;16.40;92.00;16.60;100612.00;;;;4957975;28;92882;-66
2022/06/13 03:52:10;;;;;;;1.80;0.80;;;16.40;91.90;16.60;100610.00;;;;4964491;28;95528;-68
2022/06/13 03:54:51;;;;;;;5.38;1.10;;;16.50;91.80;16.60;100619.00;;;;4945183;28;103341;-66
2022/06/13 03:57:40;;;;;;;1.10;0.90;;;16.50;91.70;16.70;100626.00;;;;4957052;28;97124;-66
2022/06/13 04:00:15;;;;;;;1.08;0.90;;;16.60;91.60;16.80;100615.00;;;;4940166;28;92835;-66
2022/06/13 04:02:44;;;;;;;4.60;1.38;;;16.60;91.50;16.80;100620.00;;;;4959216;28;114466;-66
2022/06/13 04:05:24;;;;;;;1.17;0.82;;;16.70;91.40;16.80;100621.00;;;;4981042;28;121947;-68
2022/06/13 04:07:49;;;;;;;1.52;1.00;;;16.70;91.30;16.90;100623.00;;;;4974429;28;97454;-67
2022/06/13 04:10:17;;;;;;;1.95;0.90;;;16.80;91.20;16.90;100633.00;;;;4978285;28;107089;-66
2022/06/13 04:13:20;;;;;;;1.35;1.15;;;16.80;91.10;16.90;100633.00;;;;4955605;28;93283;-66
2022/06/13 04:16:13;;;;;;;5.13;1.38;;;16.80;91.10;17.00;100636.00;;;;4973813;28;92717;-68
2022/06/13 04:18:52;;;;;;;1.00;0.75;;;16.80;91.00;17.00;100643.00;;;;4969804;28;103721;-66
2022/06/13 04:21:48;;;;;;;0.52;0.50;;;16.90;90.90;17.10;100642.00;;;;4973948;28;92835;-66
2022/06/13 04:24:28;;;;;;;2.63;0.60;;;16.90;90.80;17.10;100639.00;;;;4975173;28;97050;-66
2022/06/13 04:27:13;;;;;;;1.13;0.80;;;17.00;90.70;17.10;100635.00;;;;4928727;28;116690;-66
2022/06/13 04:29:47;;;;;;;1.50;1.02;;;17.00;90.60;17.20;100654.00;;;;4965297;28;106361;-66
2022/06/13 04:32:19;;;;;;;3.33;1.30;;;17.00;90.50;17.20;100650.00;;;;4970452;28;94879;-66
2022/06/13 04:34:52;;;;;;;0.50;0.50;;;17.00;90.40;17.30;100652.00;;;;4971316;28;115782;-67
2022/06/13 04:37:20;;;;;;;0.47;0.40;;;17.10;90.30;17.40;100656.00;;;;4954557;28;122025;-66
2022/06/13 04:39:49;;;;;;;1.70;0.95;;;17.20;90.30;17.40;100655.00;;;;4964417;28;103924;-65
2022/06/13 04:42:17;;;;;;;1.95;0.88;;;17.30;90.20;17.50;100657.00;;;;4967820;28;101384;-65
2022/06/13 04:44:44;;;;;;;1.10;0.98;;;17.30;90.00;17.60;100657.00;;;;4965258;28;94132;-65
2022/06/13 04:47:15;;;;;;;0.82;0.82;;;17.50;90.00;17.70;100655.00;;;;4975576;28;121717;-65
2022/06/13 04:49:57;;;;;;;0.65;0.65;;;17.50;89.70;17.80;100649.00;;;;4941301;28;92957;-65
2022/06/13 04:52:28;;;;;;;2.00;0.60;;;17.60;89.30;17.90;100652.00;;;;4958029;28;93071;-65
2022/06/13 04:55:17;;;;;;;1.90;1.05;;;17.70;89.10;18.00;100662.00;;;;4937994;28;109298;-67
2022/06/13 04:57:43;;;;;;;1.35;0.90;;;17.80;88.60;18.10;100661.00;;;;4952791;28;93013;-65
2022/06/13 05:00:11;;;;;;;0.77;0.57;;;18.00;88.00;18.10;100662.00;;;;4952958;28;109951;-64
2022/06/13 05:02:45;;;;;;;1.48;1.08;;;17.90;87.30;18.20;100645.00;;;;4955324;28;93819;-66
2022/06/13 05:05:32;;;;;;;1.83;1.30;;;18.00;86.80;18.20;100639.00;;;;4935547;28;93357;-67
2022/06/13 05:07:58;;;;;;;1.40;0.73;;;18.00;86.30;18.20;100642.00;;;;4956470;28;92867;-65
2022/06/13 05:10:33;;;;;;;1.52;0.82;;;18.10;86.00;18.20;100637.00;;;;4959381;28;92973;-65
2022/06/13 05:13:08;;;;;;;1.48;0.93;;;18.10;85.70;18.20;100654.00;;;;4971575;28;100104;-65
2022/06/13 05:15:34;;;;;;;7.13;1.17;;;18.10;85.40;18.20;100647.00;;;;4937602;28;102053;-65
2022/06/13 05:18:34;;;;;;;1.90;0.80;;;18.00;85.10;18.20;100652.00;;;;4935623;28;97573;-66
2022/06/13 05:22:07;;;;;;;3.78;1.20;;;18.00;85.10;18.20;100643.00;;;;4974390;28;103379;-65
2022/06/13 05:24:51;;;;;;;2.95;0.63;;;18.00;85.10;18.20;100644.00;;;;4944369;28;93026;-65
2022/06/13 05:27:17;;;;;;;0.70;0.70;;;18.10;85.30;18.30;100654.00;;;;4944008;28;122450;-65
2022/06/13 05:29:42;;;;;;;3.92;0.95;;;18.10;85.30;18.40;100649.00;;;;4948880;28;121075;-66
2022/06/13 05:32:11;;;;;;;5.88;0.98;;;18.20;85.30;18.50;100657.00;;;;4960700;28;92871;-65
2022/06/13 05:35:28;;;;;;;3.33;1.35;;;18.30;85.20;18.70;100660.00;;;;4954778;28;108947;-65
2022/06/13 05:37:56;;;;;;;1.02;0.80;;;18.40;85.00;18.90;100662.00;;;;4939166;28;93199;-65
2022/06/13 05:40:23;;;;;;;1.83;1.15;;;18.60;84.70;19.00;100664.00;;;;4956141;28;105165;-67
2022/06/13 05:42:50;;;;;;;2.35;0.90;;;18.80;84.40;19.20;100665.00;;;;4948782;28;110864;-66
2022/06/13 05:45:19;;;;;;;1.10;0.60;;;18.90;84.10;19.40;100664.00;;;;4947012;28;92821;-65
2022/06/13 05:47:48;;;;;;;1.27;1.17;;;19.10;83.70;19.50;100666.00;;;;4955567;28;113227;-64
2022/06/13 05:50:26;;;;;;;1.00;0.93;;;19.20;83.30;19.60;100664.00;;;;4938222;28;92800;-66
2022/06/13 05:52:52;;;;;;;0.93;0.77;;;19.40;83.00;19.80;100659.00;;;;4974384;28;93266;-65
2022/06/13 05:55:19;;;;;;;4.18;1.55;;;19.50;81.90;19.90;100654.00;;;;4957164;28;93865;-65
2022/06/13 05:57:45;;;;;;;2.08;1.10;;;19.60;80.40;20.00;100668.00;;;;4940391;28;93451;-66
2022/06/13 06:00:19;;;;;;;3.03;1.05;;;19.70;80.00;20.00;100672.00;;;;4957357;28;121183;-65
2022/06/13 06:02:45;;;;;;;2.05;1.15;;;19.80;80.00;20.20;100674.00;;;;4938853;28;92927;-65
2022/06/13 06:05:11;;;;;;;4.05;0.65;;;19.90;80.00;20.30;100683.00;;;;4957337;28;108439;-65
2022/06/13 06:07:37;;;;;;;1.60;0.68;;;20.00;79.80;20.40;100692.00;;;;4957124;28;110320;-66
2022/06/13 06:10:04;;;;;;;1.73;0.90;;;20.20;80.20;20.50;100683.00;;;;4944470;28;92969;-65
2022/06/13 06:12:30;;;;;;;1.02;0.85;;;20.30;82.60;20.40;100669.00;;;;4960360;28;101570;-65
2022/06/13 06:14:56;;;;;;;1.02;0.85;;;20.30;83.80;20.10;100659.00;;;;4961030;28;108356;-66
2022/06/13 06:17:21;;;;;;;2.53;1.73;;;20.10;85.20;19.80;100660.00;;;;4961070;28;121898;-67
2022/06/13 06:19:53;;;;;;;1.40;1.00;;;19.80;86.90;19.50;100680.00;;;;4953567;28;123140;-67
2022/06/13 06:22:19;;;;;;;5.50;1.17;;;19.50;89.50;19.20;100695.00;;;;4955051;28;93057;-68
2022/06/13 06:24:45;;;;;;;2.30;1.13;;;19.30;90.80;18.90;100701.00;;;;4954758;28;93328;-66
2022/06/13 06:27:14;;;;;;;2.17;1.67;;;18.90;91.80;18.60;100694.00;;;;4941672;28;122921;-66
2022/06/13 06:29:41;;;;;;;1.45;1.17;;;18.60;93.20;18.40;100697.00;;;;4947372;28;121284;-65
2022/06/13 06:32:07;;;;;;;4.82;1.30;;;18.40;94.60;18.20;100697.00;;;;4954308;28;110742;-65
2022/06/13 06:34:33;;;;;;;5.68;1.30;;;18.20;95.40;18.10;100694.00;;;;4954592;28;93013;-65
2022/06/13 06:36:58;;;;;;;2.92;1.42;;;18.10;96.20;18.20;100701.00;;;;4953782;28;120467;-65
2022/06/13 06:39:24;;;;;;;4.75;1.80;;;18.00;96.70;18.20;100711.00;;;;4952785;28;122468;-65
2022/06/13 06:41:51;;;;;;;1.10;1.00;;;18.10;97.30;18.40;100710.00;;;;4957335;28;108915;-65
2022/06/13 06:44:17;;;;;;;0.75;0.68;;;18.20;97.30;18.50;100720.00;;;;4954926;28;93860;-67
2022/06/13 06:46:45;;;;;;;0.85;0.60;;;18.30;96.90;18.60;100725.00;;;;4960321;28;93436;-66
2022/06/13 06:49:11;;;;;;;2.40;0.73;;;18.40;96.20;18.70;100723.00;;;;4955980;28;119969;-66
2022/06/13 06:51:37;;;;;;;5.57;0.82;;;18.50;95.80;18.80;100730.00;;;;4956672;28;110463;-65
2022/06/13 07:02:15;;;;;;;1.10;1.00;;;19.10;93.70;19.70;100716.00;;;;4956474;28;91945;-65
2022/06/13 07:04:41;;;;;;;1.40;0.82;;;19.40;93.00;19.90;100711.00;;;;4960768;28;92761;-64
2022/06/13 07:07:07;;;;;;;0.80;0.77;;;19.60;92.40;20.20;100721.00;;;;4950611;28;121981;-65
2022/06/13 07:09:35;;;;;;;1.45;0.95;;;19.90;91.50;20.50;100730.00;;;;4937413;28;121657;-65
2022/06/13 07:12:01;;;;;;;0.80;0.75;;;20.10;90.90;20.60;100724.00;;;;4937116;28;109288;-67
2022/06/13 07:14:34;;;;;;;1.45;0.85;;;20.30;90.10;20.80;100731.00;;;;4943492;28;92851;-67
2022/06/13 07:17:03;;;;;;;3.15;1.00;;;20.50;88.10;21.00;100736.00;;;;4938335;28;93617;-65
2022/06/13 07:19:29;;;;;;;4.95;0.82;;;20.70;86.70;21.20;100739.00;;;;4939761;28;93133;-65
2022/06/13 07:21:55;;;;;;;1.58;0.90;;;20.90;84.70;21.40;100743.00;;;;4941724;28;92940;-65
2022/06/13 07:24:39;;;;;;;1.10;0.63;;;21.10;81.90;21.50;100745.00;;;;4941509;28;93169;-65
2022/06/13 07:27:05;;;;;;;2.78;1.08;;;21.20;79.80;21.50;100747.00;;;;4930642;28;121849;-66
2022/06/13 07:29:31;;;;;;;1.75;1.05;;;21.30;76.60;21.50;100755.00;;;;4938364;28;92739;-65
2022/06/13 07:32:10;;;;;;;0.95;0.70;;;21.30;75.20;21.40;100752.00;;;;4958685;28;110636;-65
2022/06/13 07:34:38;;;;;;;1.38;0.80;;;21.20;74.50;21.30;100745.00;;;;4956381;28;93701;-65
2022/06/13 07:37:07;;;;;;;1.25;1.15;;;21.10;74.30;21.30;100749.00;;;;4959123;28;94250;-65
2022/06/13 07:39:33;;;;;;;1.67;0.75;;;21.10;73.00;21.20;100757.00;;;;4940514;28;99031;-66
2022/06/13 07:41:59;;;;;;;1.35;0.63;;;21.10;71.80;21.10;100757.00;;;;4962264;28;92910;-66
2022/06/13 07:44:36;;;;;;;2.13;1.02;;;20.90;71.70;20.90;100750.00;;;;4957075;28;98477;-66
2022/06/13 07:47:03;;;;;;;1.17;0.85;;;20.80;71.60;20.90;100759.00;;;;4956963;28;114575;-65
2022/06/13 07:49:28;;;;;;;1.02;0.95;;;20.70;71.40;20.70;100762.00;;;;4958015;28;93618;-65
2022/06/13 07:51:54;;;;;;;1.38;1.02;;;20.60;71.20;20.60;100759.00;;;;4957868;28;92169;-65
2022/06/13 07:54:22;;;;;;;0.73;0.65;;;20.50;70.90;20.50;100762.00;;;;4968924;28;93137;-65
2022/06/13 07:56:48;;;;;;;1.33;0.98;;;20.40;70.00;20.30;100759.00;;;;4958042;28;93889;-65
2022/06/13 07:59:22;;;;;;;1.38;0.57;;;20.20;70.00;20.30;100750.00;;;;4956095;28;93949;-66
2022/06/13 08:01:48;;;;;;;0.50;0.50;;;20.10;70.30;20.30;100758.00;;;;4969884;28;93059;-65
2022/06/13 08:04:14;;;;;;;1.55;0.85;;;20.10;70.70;20.30;100754.00;;;;4957887;28;109061;-66
2022/06/13 08:06:42;;;;;;;1.02;0.65;;;20.10;70.60;20.30;100734.00;;;;4967240;28;122715;-65
2022/06/13 08:09:09;;;;;;;1.17;0.70;;;20.00;70.10;20.30;100741.00;;;;4953695;28;93257;-65
2022/06/13 08:11:42;;;;;;;3.05;0.95;;;20.10;70.00;20.30;100745.00;;;;4953637;28;93268;-66
2022/06/13 08:14:14;;;;;;;1.17;0.85;;;20.10;68.70;20.50;100731.00;;;;4938146;28;98245;-65
2022/06/13 08:16:40;;;;;;;0.60;0.60;;;20.20;68.60;20.70;100734.00;;;;4953748;28;93525;-65
2022/06/13 08:19:06;;;;;;;2.47;0.93;;;20.40;68.50;20.90;100719.00;;;;4958958;28;92746;-65
2022/06/13 08:21:35;;;;;;;0.65;0.65;;;20.60;67.90;21.20;100726.00;;;;4957030;28;94241;-68
2022/06/13 08:24:02;;;;;;;0.73;0.73;;;20.80;67.00;21.50;100731.00;;;;4935485;28;93706;-67
2022/06/13 08:26:28;;;;;;;3.53;0.60;;;21.10;66.40;21.90;100739.00;;;;4953542;28;106883;-66
2022/06/13 08:28:54;;;;;;;0.73;0.50;;;21.40;65.50;22.20;100744.00;;;;4942861;28;123391;-66
2022/06/13 08:31:22;;;;;;;1.15;0.90;;;21.80;63.20;22.50;100738.00;;;;4969657;28;109322;-65
2022/06/13 08:33:48;;;;;;;1.08;0.77;;;22.10;61.30;22.70;100738.00;;;;4955912;28;92703;-65
2022/06/13 08:36:14;;;;;;;3.10;0.80;;;22.30;59.70;22.90;100724.00;;;;4954557;28;94058;-67
2022/06/13 08:38:41;;;;;;;1.30;0.90;;;22.60;59.00;23.20;100738.00;;;;4956527;28;93101;-65
2022/06/13 08:41:13;;;;;;;0.80;0.60;;;22.80;58.40;23.30;100744.00;;;;4958733;28;92304;-66
2022/06/13 08:44:08;;;;;;;0.75;0.60;;;23.00;57.20;23.30;100740.00;;;;4963331;28;93058;-67
2022/06/13 08:47:11;;;;;;;1.23;1.13;;;23.00;55.30;23.30;100743.00;;;;4974685;28;93037;-67
2022/06/13 08:49:44;;;;;;;4.78;0.50;;;23.00;55.30;23.30;100763.00;;;;4955860;28;93732;-66
2022/06/13 08:52:24;;;;;;;0.63;0.63;;;23.00;54.50;23.10;100762.00;;;;4942798;28;92948;-66
2022/06/13 08:55:18;;;;;;;0.77;0.60;;;22.90;54.30;23.00;100753.00;;;;4951943;28;92884;-67
2022/06/13 08:57:56;;;;;;;0.75;0.45;;;22.80;53.80;22.80;100767.00;;;;4958221;28;93639;-66
2022/06/13 09:00:25;;;;;;;0.85;0.63;;;22.60;53.70;22.60;100761.00;;;;4956745;28;93024;-66
2022/06/13 09:03:26;;;;;;;0.57;0.40;;;22.50;52.50;22.40;100769.00;;;;4956670;28;111550;-65
2022/06/13 09:06:02;;;;;;;0.70;0.50;;;22.30;52.80;22.40;100765.00;;;;4944392;28;92925;-66
2022/06/13 09:09:04;;;;;;;4.10;1.42;;;22.20;52.80;22.30;100772.00;;;;4976450;28;92805;-67
2022/06/13 09:11:57;;;;;;;0.20;0.20;;;22.20;52.40;22.30;100783.00;;;;4959935;28;92697;-67
2022/06/13 09:14:35;;;;;;;0.75;0.65;;;22.10;52.40;22.30;100779.00;;;;4974409;28;92832;-66
2022/06/13 09:17:29;;;;;;;0.52;0.40;;;22.10;52.40;22.30;100789.00;;;;4956991;28;101326;-67
2022/06/13 09:20:16;;;;;;;3.28;0.68;;;22.10;52.70;22.40;100783.00;;;;4949339;28;107908;-65
2022/06/13 09:22:49;;;;;;;5.22;0.98;;;22.20;52.80;22.60;100778.00;;;;4958542;28;93092;-67
2022/06/13 09:25:30;;;;;;;0.80;0.70;;;22.30;52.80;22.80;100778.00;;;;4961942;28;92911;-68
2022/06/13 09:28:04;;;;;;;0.68;0.68;;;22.40;52.50;23.00;100788.00;;;;4954180;28;92662;-67
2022/06/13 09:30:48;;;;;;;1.33;0.82;;;22.60;52.40;23.20;100783.00;;;;4952979;28;114014;-67
2022/06/13 09:34:22;;;;;;;0.85;0.80;;;22.80;51.80;23.30;100785.00;;;;4959628;28;94097;-67
2022/06/13 09:37:15;;;;;;;1.13;0.82;;;22.90;50.90;23.20;100788.00;;;;4959910;28;91904;-69
2022/06/13 09:39:42;;;;;;;1.35;0.50;;;23.00;48.30;23.10;100782.00;;;;4941630;28;93564;-67
2022/06/13 09:42:51;;;;;;;0.98;0.80;;;22.90;48.10;23.00;100788.00;;;;4957383;28;99152;-69
2022/06/13 09:45:45;;;;;;;3.03;0.77;;;22.80;48.80;23.10;100787.00;;;;4921645;28;116485;-67
2022/06/13 09:48:30;;;;;;;0.70;0.70;;;22.80;49.20;23.20;100793.00;;;;4956888;28;92590;-68
2022/06/13 09:51:57;;;;;;;0.40;0.40;;;22.90;49.30;23.40;100780.00;;;;4965688;28;92698;-68
2022/06/13 09:55:04;;;;;;;1.92;0.80;;;23.10;48.10;23.50;100800.00;;;;4975780;28;94947;-68
2022/06/13 09:58:13;;;;;;;0.47;0.40;;;23.20;47.50;23.50;100792.00;;;;4975198;28;93150;-69
2022/06/13 10:01:59;;;;;;;5.63;1.13;;;23.20;46.70;23.60;100788.00;;;;4940294;28;92752;-68
2022/06/13 10:05:03;;;;;;;1.27;0.98;;;23.30;46.80;23.60;100789.00;;;;4876258;28;92901;-69
2022/06/13 10:07:44;;;;;;;0.88;0.82;;;23.30;46.20;23.60;100786.00;;;;4935505;28;105335;-70
2022/06/13 10:10:42;;;;;;;3.90;0.70;;;23.30;46.10;23.60;100777.00;;;;4934541;28;96447;-69
2022/06/13 10:13:56;;;;;;;2.63;0.95;;;23.30;46.30;23.70;100777.00;;;;4935661;28;92722;-69
2022/06/13 10:16:46;;;;;;;1.02;0.65;;;23.40;46.40;23.80;100774.00;;;;4939789;28;94176;-70
2022/06/13 10:19:36;;;;;;;0.45;0.45;;;23.30;45.70;23.80;100780.00;;;;4955717;28;109948;-70
2022/06/13 10:22:14;;;;;;;1.88;0.95;;;23.50;45.70;23.90;100777.00;;;;4955510;28;92932;-71
2022/06/13 10:25:16;;;;;;;1.08;0.95;;;23.50;46.10;24.10;100782.00;;;;4938134;28;93060;-68
2022/06/13 10:28:31;;;;;;;0.40;0.40;;;23.70;45.90;24.40;100767.00;;;;4920381;28;93325;-69
2022/06/13 10:31:47;;;;;;;0.32;0.32;;;24.00;45.30;24.60;100764.00;;;;4932684;28;109971;-70
2022/06/13 10:34:54;;;;;;;1.40;0.82;;;24.10;45.30;24.90;100764.00;;;;4891479;28;92783;-69
2022/06/13 10:38:02;;;;;;;0.63;0.63;;;24.50;44.40;25.10;100753.00;;;;4949911;28;92320;-69
2022/06/13 10:40:28;;;;;;;1.48;0.80;;;24.70;43.50;25.40;100764.00;;;;4917626;28;93095;-70
2022/06/13 10:42:54;;;;;;;0.70;0.70;;;24.90;43.40;25.60;100768.00;;;;4967664;28;94149;-71
2022/06/13 10:45:22;;;;;;;2.55;1.13;;;25.10;42.30;25.70;100770.00;;;;4966791;28;122704;-70
2022/06/13 10:48:18;;;;;;;0.45;0.30;;;25.30;42.10;25.90;100759.00;;;;4954342;28;92977;-69
2022/06/13 10:50:57;;;;;;;1.77;0.75;;;25.40;41.70;26.10;100763.00;;;;4888902;28;92829;-71
2022/06/13 10:53:38;;;;;;;4.03;0.73;;;25.60;41.30;26.20;100765.00;;;;4951092;28;93995;-71
2022/06/13 10:56:09;;;;;;;3.28;0.77;;;25.70;41.40;26.40;100759.00;;;;4968527;28;93310;-70
2022/06/13 10:58:47;;;;;;;0.70;0.70;;;25.90;41.40;26.70;100751.00;;;;4967675;28;101964;-69
2022/06/13 11:01:21;;;;;;;0.77;0.70;;;26.10;41.10;27.00;100757.00;;;;4952192;28;92931;-71
2022/06/13 11:04:18;;;;;;;1.33;0.75;;;26.40;40.80;27.40;100749.00;;;;4967779;28;92338;-70
2022/06/13 11:07:18;;;;;;;1.00;0.60;;;26.70;40.60;27.70;100754.00;;;;4931150;28;92947;-70
2022/06/13 11:09:59;;;;;;;1.40;0.75;;;27.10;39.30;27.80;100746.00;;;;4929734;28;110199;-69
2022/06/13 11:12:37;;;;;;;0.38;0.32;;;27.20;38.90;27.90;100743.00;;;;4950291;28;94295;-69
2022/06/13 11:24:21;;;;;;;1.98;0.85;;;27.60;37.60;28.10;100755.00;;;;4932598;28;92987;-71
2022/06/13 11:30:34;;;;;;;1.30;0.40;;;27.50;36.80;27.30;100755.00;;;;4946388;28;81122;-70
2022/06/13 11:33:03;;;;;;;0.35;0.32;;;27.10;36.40;27.00;100738.00;;;;4990404;27;81030;-69
2022/06/13 11:35:40;;;;;;;0.50;0.40;;;26.70;36.30;26.80;100746.00;;;;5035791;27;80865;-72
2022/06/13 11:38:32;;;;;;;0.77;0.68;;;26.50;36.60;26.80;100748.00;;;;5015077;27;80674;-69
2022/06/13 11:41:40;;;;;;;0.57;0.45;;;26.40;37.40;26.70;100748.00;;;;5004293;27;80809;-70
2022/06/13 11:44:17;;;;;;;0.90;0.60;;;26.40;36.50;26.50;100748.00;;;;5033222;27;80905;-71
2022/06/13 11:46:53;;;;;;;0.77;0.57;;;26.20;36.30;26.40;100760.00;;;;5033280;27;81873;-69
2022/06/13 11:49:40;;;;;;;1.08;0.70;;;26.10;37.00;26.40;100753.00;;;;5032711;27;81572;-71
2022/06/13 11:52:11;;;;;;;0.50;0.50;;;26.00;37.10;26.40;100753.00;;;;5030522;27;81434;-70
2022/06/13 11:54:55;;;;;;;0.20;0.20;;;26.00;37.50;26.30;100768.00;;;;5028446;27;91708;-69
2022/06/13 11:57:36;;;;;;;1.05;0.80;;;26.00;37.00;26.00;100756.00;;;;5032705;27;95068;-70
2022/06/13 12:00:21;;;;;;;0.73;0.55;;;25.80;37.30;25.70;100762.00;;;;5029850;27;81275;-69